createdAt,value
2018-07-28T00:00:21.671Z,61.25
2018-07-28T00:01:21.667Z,60.06
2018-07-28T00:02:21.665Z,59.77
2018-07-28T00:03:21.666Z,59.70
2018-07-28T00:04:21.670Z,59.70
2018-07-28T00:05:21.668Z,59.80
2018-07-28T00:06:21.671Z,60.06
2018-07-28T00:07:21.665Z,60.06
2018-07-28T00:08:21.665Z,60.16
2018-07-28T00:09:21.663Z,60.83
2018-07-28T00:10:21.667Z,60.73
2018-07-28T00:11:21.667Z,61.31
2018-07-28T00:12:21.664Z,61.02
2018-07-28T00:13:21.659Z,61.12
2018-07-28T00:14:21.661Z,61.60
2018-07-28T00:15:21.661Z,62.08
2018-07-28T00:16:21.666Z,62.18
2018-07-28T00:17:21.665Z,61.60
2018-07-28T00:18:21.657Z,61.12
2018-07-28T00:19:21.658Z,61.51
2018-07-28T00:20:21.659Z,62.08
2018-07-28T00:21:21.656Z,62.25
2018-07-28T00:22:21.660Z,62.44
2018-07-28T00:23:21.654Z,62.54
2018-07-28T00:24:21.658Z,62.34
2018-07-28T00:25:21.657Z,62.08
2018-07-28T00:26:21.652Z,61.89
2018-07-28T00:27:21.653Z,61.80
2018-07-28T00:28:21.680Z,61.31
2018-07-28T00:29:21.649Z,61.41
2018-07-28T00:30:21.650Z,61.31
2018-07-28T00:31:21.646Z,61.80
2018-07-28T00:32:21.652Z,60.83
2018-07-28T00:33:21.645Z,61.02
2018-07-28T00:34:21.646Z,61.22
2018-07-28T00:35:21.644Z,61.99
2018-07-28T00:36:21.647Z,61.89
2018-07-28T00:37:21.648Z,61.70
2018-07-28T00:38:21.642Z,62.47
2018-07-28T00:39:21.643Z,63.40
2018-07-28T00:40:21.639Z,63.60
2018-07-28T00:41:21.638Z,63.98
2018-07-28T00:42:21.643Z,64.37
2018-07-28T00:43:21.642Z,63.89
2018-07-28T00:44:21.635Z,64.18
2018-07-28T00:45:21.639Z,63.70
2018-07-28T00:46:21.635Z,64.18
2018-07-28T00:47:21.636Z,64.66
2018-07-28T00:48:21.632Z,65.14
2018-07-28T00:49:21.638Z,65.34
2018-07-28T00:50:21.632Z,65.40
2018-07-28T00:51:21.636Z,65.24
2018-07-28T00:52:21.626Z,65.20
2018-07-28T00:53:21.627Z,65.01
2018-07-28T00:54:21.628Z,65.30
2018-07-28T00:55:21.628Z,65.88
2018-07-28T00:56:21.625Z,65.20
2018-07-28T00:57:21.627Z,65.78
2018-07-28T00:58:21.623Z,65.50
2018-07-28T00:59:21.623Z,64.92
2018-07-28T01:00:21.621Z,65.50
2018-07-28T01:01:21.620Z,65.30
2018-07-28T01:02:21.620Z,65.43
2018-07-28T01:03:21.622Z,63.60
2018-07-28T01:04:21.623Z,63.40
2018-07-28T01:05:21.615Z,63.37
2018-07-28T01:06:21.622Z,63.47
2018-07-28T01:07:21.613Z,64.15
2018-07-28T01:08:21.616Z,63.67
2018-07-28T01:09:21.616Z,63.76
2018-07-28T01:10:21.612Z,63.28
2018-07-28T01:11:21.611Z,63.50
2018-07-28T01:12:21.609Z,62.70
2018-07-28T01:13:21.614Z,62.41
2018-07-28T01:14:21.612Z,62.79
2018-07-28T01:15:21.606Z,62.70
2018-07-28T01:16:21.606Z,63.57
2018-07-28T01:17:21.607Z,63.47
2018-07-28T01:18:21.605Z,63.95
2018-07-28T01:19:21.610Z,64.43
2018-07-28T01:20:21.605Z,64.43
2018-07-28T01:21:21.599Z,64.43
2018-07-28T01:22:21.608Z,63.85
2018-07-28T01:23:21.599Z,64.34
2018-07-28T01:24:21.602Z,64.43
2018-07-28T01:25:21.598Z,64.02
2018-07-28T01:26:21.601Z,64.11
2018-07-28T01:27:21.599Z,64.24
2018-07-28T01:28:21.598Z,64.24
2018-07-28T01:29:21.596Z,64.98
2018-07-28T01:30:21.592Z,65.08
2018-07-28T01:31:21.590Z,65.37
2018-07-28T01:32:21.589Z,65.47
2018-07-28T01:33:21.587Z,65.27
2018-07-28T01:34:21.592Z,66.43
2018-07-28T01:35:21.591Z,66.04
2018-07-28T01:36:21.584Z,65.85
2018-07-28T01:37:21.587Z,66.04
2018-07-28T01:38:21.583Z,65.47
2018-07-28T01:39:21.582Z,66.52
2018-07-28T01:40:21.585Z,66.33
2018-07-28T01:41:21.578Z,67.10
2018-07-28T01:42:21.581Z,67.30
2018-07-28T01:43:21.578Z,66.91
2018-07-28T01:44:21.574Z,67.49
2018-07-28T01:45:21.579Z,67.20
2018-07-28T01:46:21.578Z,67.20
2018-07-28T01:47:21.573Z,67.49
2018-07-28T01:48:21.571Z,67.20
2018-07-28T01:49:21.590Z,66.52
2018-07-28T01:50:21.571Z,66.39
2018-07-28T01:51:21.567Z,66.30
2018-07-28T01:52:21.564Z,66.39
2018-07-28T01:53:21.562Z,66.39
2018-07-28T01:54:21.567Z,66.69
2018-07-28T01:55:21.567Z,66.78
2018-07-28T01:56:21.565Z,67.07
2018-07-28T01:57:21.558Z,67.26
2018-07-28T01:58:21.557Z,67.26
2018-07-28T01:59:21.558Z,67.26
2018-07-28T02:00:21.552Z,67.07
2018-07-28T02:01:21.554Z,66.97
2018-07-28T02:02:21.559Z,68.04
2018-07-28T02:03:21.553Z,66.97
2018-07-28T02:04:21.555Z,67.36
2018-07-28T02:05:21.561Z,67.16
2018-07-28T02:06:21.552Z,67.36
2018-07-28T02:07:21.556Z,68.32
2018-07-28T02:08:21.542Z,66.88
2018-07-28T02:09:21.541Z,66.97
2018-07-28T02:10:21.539Z,67.36
2018-07-28T02:11:21.539Z,67.16
2018-07-28T02:12:21.537Z,67.26
2018-07-28T02:13:21.536Z,67.94
2018-07-28T02:14:21.535Z,68.13
2018-07-28T02:15:21.533Z,67.36
2018-07-28T02:16:21.536Z,68.23
2018-07-28T02:17:21.530Z,67.84
2018-07-28T02:18:21.531Z,66.97
2018-07-28T02:19:21.531Z,67.26
2018-07-28T02:20:21.527Z,67.94
2018-07-28T02:21:21.525Z,68.13
2018-07-28T02:22:21.523Z,67.84
2018-07-28T02:23:21.520Z,67.26
2018-07-28T02:24:21.520Z,67.65
2018-07-28T02:25:21.518Z,67.94
2018-07-28T02:26:21.518Z,67.84
2018-07-28T02:27:21.518Z,67.16
2018-07-28T02:28:21.511Z,67.07
2018-07-28T02:29:21.513Z,66.97
2018-07-28T02:30:21.513Z,66.78
2018-07-28T02:31:21.514Z,66.30
2018-07-28T02:32:21.507Z,65.43
2018-07-28T02:33:21.511Z,65.33
2018-07-28T02:34:21.503Z,65.24
2018-07-28T02:35:21.502Z,65.24
2018-07-28T02:36:21.504Z,65.72
2018-07-28T02:37:21.504Z,66.39
2018-07-28T02:38:21.502Z,66.20
2018-07-28T02:39:21.498Z,67.03
2018-07-28T02:40:21.494Z,66.36
2018-07-28T02:41:21.495Z,66.46
2018-07-28T02:42:21.492Z,66.46
2018-07-28T02:43:21.489Z,66.85
2018-07-28T02:44:21.488Z,66.97
2018-07-28T02:45:21.490Z,67.46
2018-07-28T02:46:21.491Z,67.94
2018-07-28T02:47:21.481Z,67.55
2018-07-28T02:48:21.480Z,68.00
2018-07-28T02:49:21.483Z,68.23
2018-07-28T02:50:21.478Z,68.48
2018-07-28T02:51:21.476Z,68.29
2018-07-28T02:52:21.476Z,68.68
2018-07-28T02:53:21.470Z,68.87
2018-07-28T02:54:21.469Z,69.06
2018-07-28T02:55:21.469Z,68.68
2018-07-28T02:56:21.464Z,69.06
2018-07-28T02:57:21.463Z,69.35
2018-07-28T02:58:21.464Z,69.73
2018-07-28T02:59:21.461Z,69.64
2018-07-28T03:00:21.526Z,69.54
2018-07-28T03:01:21.461Z,69.73
2018-07-28T03:02:21.472Z,69.64
2018-07-28T03:03:21.460Z,70.12
2018-07-28T03:04:21.450Z,70.31
2018-07-28T03:05:21.449Z,69.83
2018-07-28T03:06:21.460Z,69.06
2018-07-28T03:07:21.446Z,68.58
2018-07-28T03:08:21.442Z,69.64
2018-07-28T03:09:21.443Z,69.06
2018-07-28T03:10:21.439Z,69.06
2018-07-28T03:11:21.438Z,69.35
2018-07-28T03:12:21.436Z,69.35
2018-07-28T03:13:21.438Z,69.64
2018-07-28T03:14:21.432Z,69.83
2018-07-28T03:15:21.439Z,70.12
2018-07-28T03:16:21.428Z,70.50
2018-07-28T03:17:21.426Z,70.50
2018-07-28T03:18:21.425Z,70.50
2018-07-28T03:19:21.434Z,70.98
2018-07-28T03:20:21.419Z,70.89
2018-07-28T03:21:21.423Z,70.50
2018-07-28T03:22:21.416Z,70.31
2018-07-28T03:23:21.418Z,69.93
2018-07-28T03:24:21.412Z,70.70
2018-07-28T03:25:21.411Z,70.31
2018-07-28T03:26:21.413Z,70.89
2018-07-28T03:27:21.406Z,70.79
2018-07-28T03:28:21.405Z,70.95
2018-07-28T03:29:21.403Z,70.18
2018-07-28T03:30:21.401Z,69.99
2018-07-28T03:31:21.400Z,69.79
2018-07-28T03:32:21.396Z,70.47
2018-07-28T03:33:21.394Z,69.89
2018-07-28T03:34:21.400Z,70.56
2018-07-28T03:35:21.392Z,72.01
2018-07-28T03:36:21.393Z,71.43
2018-07-28T03:37:21.387Z,71.66
2018-07-28T03:38:21.389Z,71.66
2018-07-28T03:39:21.388Z,71.56
2018-07-28T03:40:21.378Z,71.85
2018-07-28T03:41:21.381Z,71.72
2018-07-28T03:42:21.376Z,71.72
2018-07-28T03:43:21.374Z,71.91
2018-07-28T03:44:21.376Z,72.20
2018-07-28T03:45:21.369Z,71.91
2018-07-28T03:46:21.367Z,71.56
2018-07-28T03:47:21.369Z,70.98
2018-07-28T03:48:21.363Z,71.18
2018-07-28T03:49:21.448Z,71.28
2018-07-28T03:50:21.365Z,71.47
2018-07-28T03:51:21.360Z,71.28
2018-07-28T03:52:21.357Z,71.81
2018-07-28T03:53:21.355Z,71.76
2018-07-28T03:54:21.358Z,72.01
2018-07-28T03:55:21.348Z,72.11
2018-07-28T03:56:21.350Z,72.39
2018-07-28T03:57:21.348Z,72.24
2018-07-28T03:58:21.344Z,71.66
2018-07-28T03:59:21.340Z,71.47
2018-07-28T04:00:21.339Z,71.08
2018-07-28T04:01:21.336Z,70.41
2018-07-28T04:02:21.335Z,70.79
2018-07-28T04:03:21.333Z,71.08
2018-07-28T04:04:21.332Z,70.89
2018-07-28T04:05:21.331Z,70.60
2018-07-28T04:06:21.328Z,70.41
2018-07-28T04:07:21.325Z,70.41
2018-07-28T04:08:21.326Z,70.41
2018-07-28T04:09:21.325Z,70.12
2018-07-28T04:10:21.323Z,70.12
2018-07-28T04:11:21.317Z,70.21
2018-07-28T04:12:21.315Z,70.50
2018-07-28T04:13:21.314Z,70.89
2018-07-28T04:14:21.343Z,70.64
2018-07-28T04:15:21.314Z,70.44
2018-07-28T04:16:21.307Z,70.35
2018-07-28T04:17:21.305Z,69.96
2018-07-28T04:18:21.308Z,70.73
2018-07-28T04:19:21.301Z,71.02
2018-07-28T04:20:21.302Z,71.60
2018-07-28T04:21:21.302Z,70.44
2018-07-28T04:22:21.299Z,69.96
2018-07-28T04:23:21.294Z,69.77
2018-07-28T04:24:21.296Z,69.96
2018-07-28T04:25:21.293Z,69.96
2018-07-28T04:26:21.294Z,69.48
2018-07-28T04:27:21.288Z,69.77
2018-07-28T04:28:21.287Z,69.67
2018-07-28T04:29:21.289Z,69.38
2018-07-28T04:30:21.279Z,69.67
2018-07-28T04:31:21.279Z,68.90
2018-07-28T04:32:21.276Z,70.15
2018-07-28T04:33:21.274Z,70.67
2018-07-28T04:34:21.273Z,69.51
2018-07-28T04:35:21.276Z,70.48
2018-07-28T04:36:21.271Z,69.71
2018-07-28T04:37:21.269Z,69.26
2018-07-28T04:38:21.270Z,68.77
2018-07-28T04:39:21.270Z,67.55
2018-07-28T04:40:21.264Z,66.20
2018-07-28T04:41:21.265Z,64.98
2018-07-28T04:42:21.259Z,64.98
2018-07-28T04:43:21.264Z,65.14
2018-07-28T04:44:21.256Z,65.72
2018-07-28T04:45:21.257Z,65.53
2018-07-28T04:46:21.259Z,66.17
2018-07-28T04:47:21.252Z,67.23
2018-07-28T04:48:21.249Z,67.43
2018-07-28T04:49:21.249Z,67.33
2018-07-28T04:50:21.251Z,67.43
2018-07-28T04:51:21.255Z,66.40
2018-07-28T04:52:21.244Z,64.89
2018-07-28T04:53:21.247Z,63.89
2018-07-28T04:54:21.244Z,61.79
2018-07-28T04:55:21.247Z,60.72
2018-07-28T04:56:21.247Z,60.63
2018-07-28T04:57:21.243Z,61.02
2018-07-28T04:58:21.244Z,61.63
2018-07-28T04:59:21.241Z,62.21
2018-07-28T05:00:21.245Z,60.17
2018-07-28T05:01:21.238Z,59.79
2018-07-28T05:02:21.241Z,58.95
2018-07-28T05:03:21.242Z,58.78
2018-07-28T05:04:21.239Z,55.35
2018-07-28T05:05:21.243Z,53.99
2018-07-28T05:06:21.243Z,53.44
2018-07-28T05:07:21.334Z,53.08
2018-07-28T05:08:21.249Z,52.11
2018-07-28T05:09:21.245Z,52.62
2018-07-28T05:10:21.245Z,52.72
2018-07-28T05:11:21.252Z,51.84
2018-07-28T05:12:21.250Z,51.53
2018-07-28T05:13:21.252Z,51.81
2018-07-28T05:14:21.257Z,53.37
2018-07-28T05:15:21.256Z,52.88
2018-07-28T05:16:21.257Z,52.37
2018-07-28T05:17:21.264Z,53.41
2018-07-28T05:18:21.261Z,54.06
2018-07-28T05:19:21.263Z,55.00
2018-07-28T05:20:21.267Z,56.16
2018-07-28T05:21:21.265Z,56.62
2018-07-28T05:22:21.266Z,56.14
2018-07-28T05:23:21.270Z,56.60
2018-07-28T05:24:21.275Z,57.37
2018-07-28T05:25:21.272Z,57.37
2018-07-28T05:26:21.281Z,58.14
2018-07-28T05:27:21.279Z,58.44
2018-07-28T05:28:21.275Z,58.72
2018-07-28T05:29:21.278Z,58.56
2018-07-28T05:30:21.288Z,57.69
2018-07-28T05:31:21.281Z,58.07
2018-07-28T05:32:21.279Z,57.62
2018-07-28T05:33:21.281Z,57.53
2018-07-28T05:34:21.280Z,56.46
2018-07-28T05:35:21.281Z,56.49
2018-07-28T05:36:21.286Z,55.52
2018-07-28T05:37:21.283Z,54.26
2018-07-28T05:38:21.285Z,54.06
2018-07-28T05:39:21.285Z,54.13
2018-07-28T05:40:21.293Z,54.52
2018-07-28T05:41:21.287Z,56.46
2018-07-28T05:42:21.288Z,54.81
2018-07-28T05:43:21.292Z,54.88
2018-07-28T05:44:21.290Z,54.88
2018-07-28T05:45:21.290Z,55.94
2018-07-28T05:46:21.297Z,55.56
2018-07-28T05:47:21.299Z,56.43
2018-07-28T05:48:21.292Z,57.28
2018-07-28T05:49:21.294Z,56.79
2018-07-28T05:50:21.293Z,57.28
2018-07-28T05:51:21.296Z,57.28
2018-07-28T05:52:21.296Z,58.14
2018-07-28T05:53:21.295Z,57.95
2018-07-28T05:54:21.301Z,58.04
2018-07-28T05:55:21.299Z,58.04
2018-07-28T05:56:21.298Z,57.86
2018-07-28T05:57:21.300Z,58.34
2018-07-28T05:58:21.300Z,58.24
2018-07-28T05:59:21.305Z,58.92
2018-07-28T06:00:21.304Z,59.01
2018-07-28T06:01:21.304Z,59.50
2018-07-28T06:02:21.416Z,58.63
2018-07-28T06:03:21.308Z,58.04
2018-07-28T06:04:21.302Z,58.14
2018-07-28T06:05:21.309Z,57.56
2018-07-28T06:06:21.303Z,58.63
2018-07-28T06:07:21.302Z,58.34
2018-07-28T06:08:21.304Z,58.63
2018-07-28T06:09:21.306Z,59.28
2018-07-28T06:10:21.303Z,59.95
2018-07-28T06:11:21.311Z,60.63
2018-07-28T06:12:21.303Z,60.05
2018-07-28T06:13:21.308Z,59.95
2018-07-28T06:14:21.304Z,60.53
2018-07-28T06:15:21.305Z,60.05
2018-07-28T06:16:21.304Z,59.76
2018-07-28T06:17:21.305Z,60.72
2018-07-28T06:18:21.310Z,60.63
2018-07-28T06:19:21.306Z,61.21
2018-07-28T06:20:21.343Z,61.24
2018-07-28T06:21:21.305Z,60.17
2018-07-28T06:22:21.310Z,60.75
2018-07-28T06:23:21.311Z,60.47
2018-07-28T06:24:21.308Z,60.75
2018-07-28T06:25:21.313Z,60.66
2018-07-28T06:26:21.305Z,59.59
2018-07-28T06:27:21.313Z,57.76
2018-07-28T06:28:21.307Z,57.76
2018-07-28T06:29:21.307Z,60.08
2018-07-28T06:30:21.309Z,59.59
2018-07-28T06:31:21.309Z,59.79
2018-07-28T06:32:21.310Z,59.79
2018-07-28T06:33:21.309Z,59.98
2018-07-28T06:34:21.307Z,59.79
2018-07-28T06:35:21.311Z,59.21
2018-07-28T06:36:21.308Z,58.63
2018-07-28T06:37:21.309Z,57.95
2018-07-28T06:38:21.308Z,58.04
2018-07-28T06:39:21.307Z,58.80
2018-07-28T06:40:21.307Z,58.98
2018-07-28T06:41:21.308Z,60.14
2018-07-28T06:42:21.308Z,61.21
2018-07-28T06:43:21.308Z,60.72
2018-07-28T06:44:21.306Z,62.95
2018-07-28T06:45:21.307Z,64.40
2018-07-28T06:46:21.307Z,64.79
2018-07-28T06:47:21.326Z,64.31
2018-07-28T06:48:21.307Z,66.43
2018-07-28T06:49:21.306Z,66.53
2018-07-28T06:50:21.305Z,66.69
2018-07-28T06:51:21.307Z,65.14
2018-07-28T06:52:21.311Z,66.01
2018-07-28T06:53:21.306Z,69.49
2018-07-28T06:54:21.306Z,69.36
2018-07-28T06:55:21.311Z,73.90
2018-07-28T06:56:21.307Z,76.03
2018-07-28T06:57:21.305Z,77.73
2018-07-28T06:58:21.306Z,78.17
2018-07-28T06:59:21.306Z,82.42
2018-07-28T07:00:21.302Z,82.18
2018-07-28T07:01:21.303Z,83.98
2018-07-28T07:02:21.307Z,83.11
2018-07-28T07:03:21.302Z,85.33
2018-07-28T07:04:21.300Z,86.00
2018-07-28T07:05:21.300Z,87.02
2018-07-28T07:06:21.300Z,87.98
2018-07-28T07:07:21.300Z,88.46
2018-07-28T07:08:21.295Z,89.23
2018-07-28T07:09:21.295Z,89.77
2018-07-28T07:10:21.295Z,89.86
2018-07-28T07:11:21.291Z,88.42
2018-07-28T07:12:21.289Z,89.43
2018-07-28T07:13:21.288Z,89.39
2018-07-28T07:14:21.289Z,89.09
2018-07-28T07:15:21.287Z,90.25
2018-07-28T07:16:21.285Z,89.19
2018-07-28T07:17:21.284Z,90.54
2018-07-28T07:18:21.282Z,90.16
2018-07-28T07:19:21.280Z,90.25
2018-07-28T07:20:21.277Z,90.58
2018-07-28T07:21:21.278Z,90.30
2018-07-28T07:22:21.277Z,90.30
2018-07-28T07:23:21.280Z,90.30
2018-07-28T07:24:21.272Z,91.45
2018-07-28T07:25:21.270Z,92.61
2018-07-28T07:26:21.270Z,90.97
2018-07-28T07:27:21.274Z,92.61
2018-07-28T07:28:21.274Z,92.22
2018-07-28T07:29:21.263Z,93.86
2018-07-28T07:30:21.269Z,93.96
2018-07-28T07:31:21.263Z,95.40
2018-07-28T07:32:21.257Z,96.17
2018-07-28T07:33:21.259Z,96.08
2018-07-28T07:34:21.256Z,97.33
2018-07-28T07:35:21.253Z,97.38
2018-07-28T07:36:21.250Z,96.32
2018-07-28T07:37:21.249Z,96.51
2018-07-28T07:38:21.247Z,96.61
2018-07-28T07:39:21.247Z,96.61
2018-07-28T07:40:21.251Z,96.27
2018-07-28T07:41:21.249Z,96.08
2018-07-28T07:42:21.245Z,95.79
2018-07-28T07:43:21.242Z,96.17
2018-07-28T07:44:21.249Z,95.36
2018-07-28T07:45:21.240Z,95.64
2018-07-28T07:46:21.260Z,97.28
2018-07-28T07:47:21.249Z,96.56
2018-07-28T07:48:21.230Z,95.98
2018-07-28T07:49:21.230Z,95.69
2018-07-28T07:50:21.228Z,95.02
2018-07-28T07:51:21.226Z,95.21
2018-07-28T07:52:21.229Z,95.40
2018-07-28T07:53:21.221Z,94.34
2018-07-28T07:54:21.225Z,94.92
2018-07-28T07:55:21.218Z,96.56
2018-07-28T07:56:21.221Z,96.85
2018-07-28T07:57:21.224Z,97.24
2018-07-28T07:58:21.213Z,96.22
2018-07-28T07:59:21.211Z,97.86
2018-07-28T08:00:21.213Z,98.25
2018-07-28T08:01:21.214Z,97.91
2018-07-28T08:02:21.207Z,98.77
2018-07-28T08:03:21.212Z,98.10
2018-07-28T08:04:21.200Z,97.81
2018-07-28T08:05:21.200Z,99.99
2018-07-28T08:06:21.242Z,99.99
2018-07-28T08:07:21.198Z,99.99
2018-07-28T08:08:21.194Z,99.21
2018-07-28T08:09:21.198Z,98.49
2018-07-28T08:10:21.189Z,96.80
2018-07-28T08:11:21.191Z,96.22
2018-07-28T08:12:21.186Z,94.87
2018-07-28T08:13:21.186Z,94.00
2018-07-28T08:14:21.182Z,93.43
2018-07-28T08:15:21.182Z,95.06
2018-07-28T08:16:21.233Z,96.32
2018-07-28T08:17:21.181Z,98.05
2018-07-28T08:18:21.176Z,97.57
2018-07-28T08:19:21.174Z,96.32
2018-07-28T08:20:21.177Z,96.51
2018-07-28T08:21:21.169Z,96.94
2018-07-28T08:22:21.167Z,96.84
2018-07-28T08:23:21.173Z,97.91
2018-07-28T08:24:21.165Z,97.57
2018-07-28T08:25:21.163Z,97.91
2018-07-28T08:26:21.164Z,96.84
2018-07-28T08:27:21.163Z,97.09
2018-07-28T08:28:21.159Z,97.09
2018-07-28T08:29:21.157Z,96.12
2018-07-28T08:30:21.156Z,94.24
2018-07-28T08:31:21.155Z,94.14
2018-07-28T08:32:21.156Z,88.45
2018-07-28T08:33:21.196Z,90.23
2018-07-28T08:34:21.151Z,89.55
2018-07-28T08:35:21.154Z,86.07
2018-07-28T08:36:21.148Z,87.85
2018-07-28T08:37:21.150Z,85.63
2018-07-28T08:38:21.147Z,85.68
2018-07-28T08:39:21.150Z,84.03
2018-07-28T08:40:21.144Z,83.88
2018-07-28T08:41:21.143Z,82.37
2018-07-28T08:42:21.143Z,80.24
2018-07-28T08:43:21.139Z,78.69
2018-07-28T08:44:21.139Z,77.09
2018-07-28T08:45:21.145Z,78.44
2018-07-28T08:46:21.145Z,79.70
2018-07-28T08:47:21.145Z,76.79
2018-07-28T08:48:21.141Z,74.18
2018-07-28T08:49:21.258Z,76.99
2018-07-28T08:50:21.140Z,76.99
2018-07-28T08:51:21.140Z,76.12
2018-07-28T08:52:21.140Z,75.15
2018-07-28T08:53:21.136Z,76.12
2018-07-28T08:54:21.143Z,75.83
2018-07-28T08:55:21.148Z,77.57
2018-07-28T08:56:21.140Z,77.96
2018-07-28T08:57:21.142Z,77.57
2018-07-28T08:58:21.139Z,80.19
2018-07-28T08:59:21.140Z,78.15
2018-07-28T09:00:21.143Z,78.92
2018-07-28T09:01:21.143Z,79.90
2018-07-28T09:02:21.141Z,80.47
2018-07-28T09:03:21.141Z,81.93
2018-07-28T09:04:21.146Z,80.44
2018-07-28T09:05:21.141Z,80.44
2018-07-28T09:06:21.147Z,79.85
2018-07-28T09:07:21.145Z,80.34
2018-07-28T09:08:21.142Z,81.02
2018-07-28T09:09:21.141Z,81.30
2018-07-28T09:10:21.147Z,81.40
2018-07-28T09:11:21.146Z,81.60
2018-07-28T09:12:21.201Z,79.76
2018-07-28T09:13:21.142Z,80.92
2018-07-28T09:14:21.143Z,82.23
2018-07-28T09:15:21.149Z,83.98
2018-07-28T09:16:21.209Z,84.94
2018-07-28T09:17:21.148Z,84.75
2018-07-28T09:18:21.148Z,83.11
2018-07-28T09:19:21.148Z,83.40
2018-07-28T09:20:21.145Z,79.82
2018-07-28T09:21:21.147Z,80.79
2018-07-28T09:22:21.149Z,81.56
2018-07-28T09:23:21.163Z,83.20
2018-07-28T09:24:21.144Z,82.81
2018-07-28T09:25:21.149Z,82.53
2018-07-28T09:26:21.150Z,84.17
2018-07-28T09:27:21.160Z,84.27
2018-07-28T09:28:21.147Z,84.01
2018-07-28T09:29:21.153Z,82.76
2018-07-28T09:30:21.154Z,82.66
2018-07-28T09:31:21.150Z,83.05
2018-07-28T09:32:21.147Z,82.12
2018-07-28T09:33:21.151Z,81.15
2018-07-28T09:34:21.150Z,82.03
2018-07-28T09:35:21.152Z,82.60
2018-07-28T09:36:21.151Z,81.05
2018-07-28T09:37:21.155Z,82.51
2018-07-28T09:38:21.151Z,81.64
2018-07-28T09:39:21.168Z,80.38
2018-07-28T09:40:21.151Z,80.28
2018-07-28T09:41:21.153Z,80.47
2018-07-28T09:42:21.152Z,81.15
2018-07-28T09:43:21.156Z,79.60
2018-07-28T09:44:21.154Z,79.50
2018-07-28T09:45:21.159Z,80.77
2018-07-28T09:46:21.213Z,80.28
2018-07-28T09:47:21.157Z,80.77
2018-07-28T09:48:21.157Z,79.90
2018-07-28T09:49:21.159Z,81.54
2018-07-28T09:50:21.158Z,81.35
2018-07-28T09:51:21.159Z,80.77
2018-07-28T09:52:21.161Z,80.77
2018-07-28T09:53:21.165Z,80.38
2018-07-28T09:54:21.166Z,81.05
2018-07-28T09:55:21.164Z,81.45
2018-07-28T09:56:21.233Z,81.35
2018-07-28T09:57:21.165Z,82.12
2018-07-28T09:58:21.164Z,83.67
2018-07-28T09:59:21.166Z,83.96
2018-07-28T10:00:21.171Z,82.22
2018-07-28T10:01:21.171Z,84.25
2018-07-28T10:02:21.176Z,85.03
2018-07-28T10:03:21.169Z,86.58
2018-07-28T10:04:21.170Z,85.51
2018-07-28T10:05:21.169Z,80.87
2018-07-28T10:06:21.172Z,81.12
2018-07-28T10:07:21.177Z,82.80
2018-07-28T10:08:21.171Z,82.66
2018-07-28T10:09:21.173Z,82.32
2018-07-28T10:10:21.173Z,84.89
2018-07-28T10:11:21.174Z,85.51
2018-07-28T10:12:21.178Z,83.25
2018-07-28T10:13:21.176Z,83.83
2018-07-28T10:14:21.175Z,83.44
2018-07-28T10:15:21.177Z,84.01
2018-07-28T10:16:21.247Z,85.28
2018-07-28T10:17:21.181Z,85.76
2018-07-28T10:18:21.180Z,86.15
2018-07-28T10:19:21.179Z,85.28
2018-07-28T10:20:21.179Z,85.33
2018-07-28T10:21:21.182Z,84.94
2018-07-28T10:22:21.182Z,81.75
2018-07-28T10:23:21.186Z,85.72
2018-07-28T10:24:21.189Z,84.84
2018-07-28T10:25:21.189Z,86.69
2018-07-28T10:26:21.183Z,86.59
2018-07-28T10:27:21.184Z,82.72
2018-07-28T10:28:21.182Z,83.11
2018-07-28T10:29:21.185Z,85.14
2018-07-28T10:30:21.187Z,85.24
2018-07-28T10:31:21.186Z,85.91
2018-07-28T10:32:21.186Z,86.98
2018-07-28T10:33:21.186Z,87.17
2018-07-28T10:34:21.186Z,86.78
2018-07-28T10:35:21.187Z,86.25
2018-07-28T10:36:21.229Z,87.41
2018-07-28T10:37:21.187Z,87.27
2018-07-28T10:38:21.195Z,85.58
2018-07-28T10:39:21.188Z,85.77
2018-07-28T10:40:21.189Z,86.25
2018-07-28T10:41:21.189Z,86.83
2018-07-28T10:42:21.193Z,86.25
2018-07-28T10:43:21.192Z,86.06
2018-07-28T10:44:21.189Z,88.19
2018-07-28T10:45:21.191Z,87.71
2018-07-28T10:46:21.190Z,88.77
2018-07-28T10:47:21.196Z,87.90
2018-07-28T10:48:21.191Z,88.67
2018-07-28T10:49:21.193Z,87.03
2018-07-28T10:50:21.192Z,89.15
2018-07-28T10:51:21.192Z,88.33
2018-07-28T10:52:21.196Z,85.62
2018-07-28T10:53:21.189Z,84.84
2018-07-28T10:54:21.194Z,85.91
2018-07-28T10:55:21.243Z,86.01
2018-07-28T10:56:21.191Z,83.98
2018-07-28T10:57:21.197Z,85.28
2018-07-28T10:58:21.191Z,82.76
2018-07-28T10:59:21.193Z,84.60
2018-07-28T11:00:21.216Z,84.31
2018-07-28T11:01:21.218Z,82.28
2018-07-28T11:02:21.196Z,84.11
2018-07-28T11:03:21.194Z,79.99
2018-07-28T11:04:21.198Z,79.50
2018-07-28T11:05:21.199Z,78.92
2018-07-28T11:06:21.195Z,79.70
2018-07-28T11:07:21.200Z,79.12
2018-07-28T11:08:21.198Z,79.06
2018-07-28T11:09:21.196Z,78.97
2018-07-28T11:10:21.200Z,78.09
2018-07-28T11:11:21.199Z,76.93
2018-07-28T11:12:21.197Z,77.12
2018-07-28T11:13:21.201Z,76.64
2018-07-28T11:14:21.198Z,76.64
2018-07-28T11:15:21.200Z,77.61
2018-07-28T11:16:21.199Z,79.49
2018-07-28T11:17:21.204Z,76.39
2018-07-28T11:18:21.201Z,77.70
2018-07-28T11:19:21.206Z,76.93
2018-07-28T11:20:21.201Z,77.51
2018-07-28T11:21:21.205Z,77.22
2018-07-28T11:22:21.211Z,77.94
2018-07-28T11:23:21.209Z,76.64
2018-07-28T11:24:21.207Z,75.19
2018-07-28T11:25:21.206Z,76.15
2018-07-28T11:26:21.238Z,76.06
2018-07-28T11:27:21.215Z,74.41
2018-07-28T11:28:21.216Z,74.22
2018-07-28T11:29:21.213Z,75.38
2018-07-28T11:30:21.217Z,74.12
2018-07-28T11:31:21.220Z,75.92
2018-07-28T11:32:21.215Z,76.51
2018-07-28T11:33:21.255Z,75.24
2018-07-28T11:34:21.216Z,77.09
2018-07-28T11:35:21.217Z,76.41
2018-07-28T11:36:21.219Z,76.02
2018-07-28T11:37:21.223Z,74.76
2018-07-28T11:38:21.219Z,76.02
2018-07-28T11:39:21.226Z,75.73
2018-07-28T11:40:21.221Z,76.15
2018-07-28T11:41:21.222Z,76.35
2018-07-28T11:42:21.222Z,76.31
2018-07-28T11:43:21.229Z,75.63
2018-07-28T11:44:21.222Z,77.09
2018-07-28T11:45:21.228Z,76.79
2018-07-28T11:46:21.223Z,77.28
2018-07-28T11:47:21.230Z,79.22
2018-07-28T11:48:21.224Z,78.54
2018-07-28T11:49:21.227Z,79.12
2018-07-28T11:50:21.228Z,80.15
2018-07-28T11:51:21.317Z,78.99
2018-07-28T11:52:21.231Z,80.73
2018-07-28T11:53:21.229Z,79.17
2018-07-28T11:54:21.230Z,81.40
2018-07-28T11:55:21.233Z,82.33
2018-07-28T11:56:21.229Z,82.81
2018-07-28T11:57:21.232Z,82.14
2018-07-28T11:58:21.381Z,82.81
2018-07-28T11:59:21.233Z,83.59
2018-07-28T12:00:21.232Z,85.33
2018-07-28T12:01:21.233Z,84.08
2018-07-28T12:02:21.233Z,85.91
2018-07-28T12:03:21.240Z,86.69
2018-07-28T12:04:21.233Z,85.77
2018-07-28T12:05:21.259Z,84.90
2018-07-28T12:06:21.235Z,85.68
2018-07-28T12:07:21.233Z,86.45
2018-07-28T12:08:21.241Z,87.13
2018-07-28T12:09:21.239Z,86.93
2018-07-28T12:10:21.237Z,87.03
2018-07-28T12:11:21.235Z,88.57
2018-07-28T12:12:21.243Z,90.70
2018-07-28T12:13:21.237Z,87.41
2018-07-28T12:14:21.240Z,89.06
2018-07-28T12:15:21.242Z,89.35
2018-07-28T12:16:21.240Z,89.93
2018-07-28T12:17:21.240Z,88.29
2018-07-28T12:18:21.369Z,91.28
2018-07-28T12:19:21.240Z,89.97
2018-07-28T12:20:21.241Z,87.75
2018-07-28T12:21:21.242Z,87.07
2018-07-28T12:22:21.238Z,86.30
2018-07-28T12:23:21.237Z,86.34
2018-07-28T12:24:21.239Z,86.49
2018-07-28T12:25:21.239Z,87.07
2018-07-28T12:26:21.237Z,87.70
2018-07-28T12:27:21.239Z,85.96
2018-07-28T12:28:21.236Z,85.28
2018-07-28T12:29:21.244Z,83.73
2018-07-28T12:30:21.246Z,85.22
2018-07-28T12:31:21.243Z,85.71
2018-07-28T12:32:21.240Z,84.45
2018-07-28T12:33:21.240Z,85.31
2018-07-28T12:34:21.239Z,85.22
2018-07-28T12:35:21.241Z,83.67
2018-07-28T12:36:21.248Z,84.25
2018-07-28T12:37:21.270Z,82.90
2018-07-28T12:38:21.242Z,83.18
2018-07-28T12:39:21.250Z,85.61
2018-07-28T12:40:21.243Z,83.77
2018-07-28T12:41:21.246Z,82.41
2018-07-28T12:42:21.247Z,83.58
2018-07-28T12:43:21.249Z,83.18
2018-07-28T12:44:21.247Z,81.93
2018-07-28T12:45:21.247Z,83.67
2018-07-28T12:46:21.254Z,84.93
2018-07-28T12:47:21.249Z,84.16
2018-07-28T12:48:21.247Z,84.35
2018-07-28T12:49:21.265Z,85.51
2018-07-28T12:50:21.252Z,85.80
2018-07-28T12:51:21.253Z,85.22
2018-07-28T12:52:21.252Z,84.16